createdAt,value
2018-11-26T00:01:14.367Z,39.10
2018-11-26T00:06:17.984Z,44.57
2018-11-26T00:11:36.590Z,44.77
2018-11-26T00:16:40.186Z,39.10
2018-11-26T00:21:43.762Z,42.47
2018-11-26T00:26:47.307Z,42.53
2018-11-26T00:31:50.842Z,41.43
2018-11-26T00:36:54.292Z,41.33
2018-11-26T00:41:57.815Z,36.47
2018-11-26T00:47:01.437Z,39.43
2018-11-26T00:52:05.407Z,42.43
2018-11-26T00:57:09.005Z,38.00
2018-11-26T01:02:12.584Z,36.53
2018-11-26T01:07:16.199Z,37.33
2018-11-26T01:12:19.779Z,37.40
2018-11-26T01:17:23.339Z,38.77
2018-11-26T01:22:27.038Z,36.07
2018-11-26T01:27:30.757Z,39.73
2018-11-26T01:32:34.349Z,35.10
2018-11-26T01:37:37.905Z,40.00
2018-11-26T01:42:42.057Z,32.63
2018-11-26T01:47:45.657Z,37.20
2018-11-26T01:52:49.278Z,34.00
2018-11-26T01:57:52.810Z,34.97
2018-11-26T02:02:56.501Z,33.00
2018-11-26T02:08:00.026Z,32.10
2018-11-26T02:13:03.563Z,35.93
2018-11-26T02:18:08.414Z,34.83
2018-11-26T02:23:12.941Z,32.70
2018-11-26T02:28:16.706Z,30.57
2018-11-26T02:33:20.312Z,32.10
2018-11-26T02:38:24.006Z,33.47
2018-11-26T02:43:27.573Z,34.67
2018-11-26T02:48:31.079Z,33.77
2018-11-26T02:53:34.649Z,30.43
2018-11-26T02:58:38.189Z,32.93
2018-11-26T03:03:41.694Z,33.53
2018-11-26T03:08:45.376Z,32.00
2018-11-26T03:13:49.026Z,33.07
2018-11-26T03:18:52.589Z,32.97
2018-11-26T03:23:56.205Z,33.00
2018-11-26T03:28:59.700Z,31.30
2018-11-26T03:34:03.205Z,31.37
2018-11-26T03:39:07.986Z,34.50
2018-11-26T03:44:11.476Z,34.50
2018-11-26T03:49:15.067Z,32.60
2018-11-26T03:54:18.770Z,31.77
2018-11-26T03:59:22.398Z,30.80
2018-11-26T04:04:26.010Z,34.73
2018-11-26T04:09:29.641Z,33.77
2018-11-26T04:14:33.151Z,32.23
2018-11-26T04:19:36.800Z,32.70
2018-11-26T04:24:40.344Z,36.00
2018-11-26T04:29:43.934Z,36.77
2018-11-26T04:34:47.459Z,38.17
2018-11-26T04:39:51.006Z,36.30
2018-11-26T04:44:54.537Z,34.77
2018-11-26T04:49:58.149Z,36.30
2018-11-26T04:55:01.678Z,33.03
2018-11-26T05:00:08.580Z,36.57
2018-11-26T05:05:13.198Z,36.67
2018-11-26T05:10:16.706Z,33.87
2018-11-26T05:15:20.274Z,33.27
2018-11-26T05:20:23.784Z,39.83
2018-11-26T05:25:27.437Z,36.80
2018-11-26T05:30:30.946Z,31.47
2018-11-26T05:35:34.476Z,32.50
2018-11-26T05:40:38.005Z,35.00
2018-11-26T05:45:41.519Z,32.13
2018-11-26T05:50:45.046Z,26.77
2018-11-26T05:55:48.558Z,29.87
2018-11-26T06:00:52.229Z,29.93
2018-11-26T06:05:55.932Z,27.03
2018-11-26T06:10:59.497Z,26.27
2018-11-26T06:16:03.259Z,25.93
2018-11-26T06:21:07.579Z,26.67
2018-11-26T06:26:11.104Z,22.57
2018-11-26T06:31:14.862Z,21.37
2018-11-26T06:36:18.476Z,21.93
2018-11-26T06:41:22.026Z,20.17
2018-11-26T06:46:25.778Z,21.60
2018-11-26T06:51:29.240Z,17.90
2018-11-26T06:56:32.958Z,22.93
2018-11-26T07:01:36.614Z,15.27
2018-11-26T07:06:40.289Z,19.33
2018-11-26T07:11:43.848Z,15.60
2018-11-26T07:16:47.354Z,14.60
2018-11-26T07:21:50.941Z,20.40
2018-11-26T07:26:54.437Z,13.93
2018-11-26T07:31:57.991Z,16.77
2018-11-26T07:37:01.528Z,16.70
2018-11-26T07:42:06.352Z,13.97
2018-11-26T07:47:09.930Z,14.07
2018-11-26T07:52:13.769Z,17.37
2018-11-26T07:57:17.241Z,12.87
2018-11-26T08:02:20.698Z,14.77
2018-11-26T08:07:24.180Z,11.90
2018-11-26T08:12:27.713Z,11.83
2018-11-26T08:17:31.275Z,12.13
2018-11-26T08:22:34.890Z,11.83
2018-11-26T08:27:39.201Z,9.20
2018-11-26T08:32:43.865Z,10.60
2018-11-26T08:37:53.251Z,15.23
2018-11-26T08:43:14.921Z,14.67
2018-11-26T08:48:25.658Z,11.13
2018-11-26T08:53:29.423Z,11.20
2018-11-26T08:58:33.033Z,10.10
2018-11-26T09:03:42.439Z,8.87
2018-11-26T09:08:46.233Z,9.83
2018-11-26T09:13:49.726Z,8.83
2018-11-26T09:18:53.738Z,10.23
2018-11-26T09:23:57.622Z,7.17
2018-11-26T09:29:01.132Z,10.83
2018-11-26T09:34:05.739Z,12.17
2018-11-26T09:39:11.831Z,14.00
2018-11-26T09:44:15.967Z,9.23
2018-11-26T09:49:20.420Z,11.37
2018-11-26T09:54:26.043Z,11.20
2018-11-26T09:59:28.870Z,11.53
2018-11-26T10:04:32.471Z,11.93
2018-11-26T10:09:35.929Z,7.93
2018-11-26T10:14:39.728Z,8.90
2018-11-26T10:19:43.648Z,9.27
2018-11-26T10:24:47.701Z,7.30
2018-11-26T10:29:51.306Z,11.03
2018-11-26T10:34:54.766Z,8.17
2018-11-26T10:39:58.333Z,5.27
2018-11-26T10:45:01.790Z,5.83
2018-11-26T10:50:08.473Z,6.23
2018-11-26T10:55:14.521Z,5.13
2018-11-26T11:00:24.001Z,12.57
2018-11-26T11:05:27.628Z,10.13
2018-11-26T11:10:33.150Z,6.37
2018-11-26T11:15:37.138Z,8.87
2018-11-26T11:20:40.872Z,5.57
2018-11-26T11:25:44.494Z,8.90
2018-11-26T11:30:48.110Z,9.00
2018-11-26T11:35:52.387Z,5.97
2018-11-26T11:40:55.935Z,7.03
2018-11-26T11:45:59.553Z,4.37
2018-11-26T11:51:03.262Z,4.43
2018-11-26T11:56:07.408Z,3.00
2018-11-26T12:01:11.130Z,4.23
2018-11-26T12:06:14.622Z,3.17
2018-11-26T12:11:18.112Z,2.90
2018-11-26T12:16:21.742Z,3.77
2018-11-26T12:21:25.437Z,5.63
2018-11-26T12:26:29.447Z,3.70
2018-11-26T12:31:32.973Z,2.63
2018-11-26T12:36:36.495Z,3.60
2018-11-26T12:41:40.079Z,2.90
2018-11-26T12:46:43.661Z,4.10
2018-11-26T12:51:47.173Z,2.03
2018-11-26T12:56:50.874Z,2.93
2018-11-26T13:01:54.419Z,3.13
2018-11-26T13:06:58.157Z,3.10
2018-11-26T13:12:02.186Z,2.20
2018-11-26T13:17:06.207Z,1.93
2018-11-26T13:22:09.686Z,3.67
2018-11-26T13:27:13.349Z,2.23
2018-11-26T13:32:17.084Z,1.70
2018-11-26T13:37:20.511Z,2.63
2018-11-26T13:42:24.081Z,3.60
2018-11-26T13:47:27.646Z,2.93
2018-11-26T13:52:31.784Z,2.20
2018-11-26T13:57:35.508Z,3.03
2018-11-26T14:02:39.167Z,2.50
2018-11-26T14:07:43.123Z,2.00
2018-11-26T14:12:55.662Z,2.37
2018-11-26T14:17:59.268Z,4.17
2018-11-26T14:23:02.826Z,4.33
2018-11-26T14:28:06.716Z,2.73
2018-11-26T14:33:10.652Z,5.00
2018-11-26T14:38:14.420Z,5.07
2018-11-26T14:43:17.924Z,6.87
2018-11-26T14:48:21.598Z,3.00
2018-11-26T14:53:25.156Z,2.87
2018-11-26T14:58:28.796Z,4.30
2018-11-26T15:03:32.415Z,6.20
2018-11-26T15:08:36.127Z,3.63
2018-11-26T15:13:39.860Z,9.70
2018-11-26T15:18:43.516Z,7.80
2018-11-26T15:23:47.033Z,5.30
2018-11-26T15:28:51.012Z,4.37
2018-11-26T15:33:54.658Z,9.67
2018-11-26T15:38:58.433Z,4.90
2018-11-26T15:44:02.322Z,4.67
2018-11-26T15:49:06.612Z,6.50
2018-11-26T15:54:10.148Z,5.97
2018-11-26T15:59:13.928Z,5.57
2018-11-26T16:04:17.667Z,7.97
2018-11-26T16:09:21.225Z,7.70
2018-11-26T16:14:24.777Z,3.87
2018-11-26T16:19:28.357Z,5.20
2018-11-26T16:24:32.040Z,6.37
2018-11-26T16:29:35.574Z,6.53
2018-11-26T16:34:39.119Z,5.53
2018-11-26T16:39:42.989Z,4.20
2018-11-26T16:44:46.518Z,3.43
2018-11-26T16:49:50.140Z,4.67
2018-11-26T16:54:53.705Z,6.63
2018-11-26T16:59:57.434Z,4.23
2018-11-26T17:05:01.263Z,4.90
2018-11-26T17:10:07.100Z,5.47
2018-11-26T17:15:15.676Z,8.10
2018-11-26T17:20:19.297Z,5.13
2018-11-26T17:25:22.857Z,6.30
2018-11-26T17:30:27.612Z,5.53
2018-11-26T17:35:32.065Z,5.93
2018-11-26T17:40:37.730Z,8.63
2018-11-26T17:45:41.386Z,5.93
2018-11-26T17:50:45.633Z,5.53
2018-11-26T17:55:54.844Z,7.00
2018-11-26T18:01:07.311Z,4.53
2018-11-26T18:06:11.035Z,6.23
2018-11-26T18:11:14.678Z,8.33
2018-11-26T18:16:18.249Z,7.43
2018-11-26T18:21:22.084Z,6.70
2018-11-26T18:26:26.289Z,9.37
2018-11-26T18:31:29.823Z,5.90
2018-11-26T18:36:33.415Z,6.90
2018-11-26T18:41:36.939Z,6.10
2018-11-26T18:46:40.525Z,5.47
2018-11-26T18:51:44.170Z,5.10
2018-11-26T18:56:47.728Z,10.20
2018-11-26T19:01:51.415Z,5.07
2018-11-26T19:06:56.006Z,5.97
2018-11-26T19:12:04.075Z,5.00
2018-11-26T19:17:03.749Z,5.13
2018-11-26T19:22:07.410Z,5.93
2018-11-26T19:27:11.832Z,7.57
2018-11-26T19:32:15.464Z,9.03
2018-11-26T19:37:19.110Z,5.67
2018-11-26T19:42:23.554Z,5.57
2018-11-26T19:47:26.319Z,4.87
2018-11-26T19:52:29.971Z,5.73
2018-11-26T19:57:33.527Z,5.17
2018-11-26T20:02:37.621Z,6.17
2018-11-26T20:07:41.418Z,5.83
2018-11-26T20:12:44.919Z,5.47
2018-11-26T20:17:48.479Z,3.93
2018-11-26T20:22:52.276Z,6.73
2018-11-26T20:27:56.091Z,9.83
2018-11-26T20:32:59.431Z,9.83
2018-11-26T20:38:03.067Z,7.47
2018-11-26T20:43:09.509Z,13.70
2018-11-26T20:48:13.409Z,8.40
2018-11-26T20:53:18.009Z,10.10
2018-11-26T20:58:21.704Z,10.13
2018-11-26T21:03:30.143Z,8.57
2018-11-26T21:08:35.616Z,7.77
2018-11-26T21:13:40.725Z,12.13
2018-11-26T21:18:46.284Z,9.33
2018-11-26T21:23:51.875Z,11.07
2018-11-26T21:28:57.728Z,11.80
2018-11-26T21:34:03.998Z,9.67
2018-11-26T21:39:10.548Z,12.37
2018-11-26T21:44:15.116Z,9.83
2018-11-26T21:49:20.206Z,11.07
2018-11-26T21:54:24.811Z,12.37
2018-11-26T21:59:29.299Z,10.68
2018-11-26T22:04:35.843Z,11.17
2018-11-26T22:09:41.059Z,12.03
2018-11-26T22:14:45.271Z,11.73
2018-11-26T22:19:49.833Z,14.70
2018-11-26T22:24:54.147Z,16.90
2018-11-26T22:29:58.746Z,14.27
2018-11-26T22:35:03.250Z,14.67
2018-11-26T22:40:13.881Z,12.43
2018-11-26T22:45:28.426Z,11.80
2018-11-26T22:50:32.334Z,12.37
2018-11-26T22:55:36.089Z,13.03
2018-11-26T23:00:59.768Z,11.63
2018-11-26T23:06:03.404Z,13.27
2018-11-26T23:11:07.584Z,15.33
2018-11-26T23:16:11.233Z,12.83
2018-11-26T23:21:14.737Z,14.13
2018-11-26T23:26:18.492Z,15.73
2018-11-26T23:31:22.193Z,14.67
2018-11-26T23:36:25.812Z,15.03
2018-11-26T23:41:29.469Z,12.90
2018-11-26T23:46:33.189Z,16.60
2018-11-26T23:51:36.645Z,13.40
2018-11-26T23:56:40.694Z,14.33
